Time;durP1;ratioP1;P1;durP2;ratioP2;P2;SDS_P1;SDS_P2;PMS_P1;PMS_P2;Temp;Humidity;BMP_temperature;BMP_pressure;BME280_temperature;BME280_humidity;BME280_pressure;Samples;Min_cycle;Max_cycle;Signal;HPM_P1;HPM_P2
2023/10/01 00:00:46;;;;;;;10.43;7.03;;;12.90;99.90;;;;;;5069277;28;20029;-73
2023/10/01 00:03:16;;;;;;;15.67;7.03;;;12.80;99.90;;;;;;5069567;28;20005;-74
2023/10/01 00:05:41;;;;;;;20.27;8.10;;;12.80;99.90;;;;;;5067857;28;20096;-73
2023/10/01 00:08:13;;;;;;;14.30;7.17;;;12.80;99.90;;;;;;5066138;28;20048;-73
2023/10/01 00:10:41;;;;;;;11.80;7.03;;;12.80;99.90;;;;;;5067188;28;20096;-73
2023/10/01 00:13:09;;;;;;;12.17;7.50;;;12.80;99.90;;;;;;5066454;28;20028;-74
2023/10/01 00:15:35;;;;;;;14.27;7.77;;;12.80;99.90;;;;;;5068481;28;20067;-73
2023/10/01 00:18:02;;;;;;;11.40;7.33;;;12.80;99.90;;;;;;5049959;28;20041;-73
2023/10/01 00:20:30;;;;;;;12.27;6.90;;;12.80;99.90;;;;;;5067977;28;20029;-73
2023/10/01 00:23:00;;;;;;;10.43;6.70;;;12.70;99.90;;;;;;5069009;28;20079;-73
2023/10/01 00:25:27;;;;;;;11.40;6.60;;;12.70;99.90;;;;;;5068768;28;20017;-73
2023/10/01 00:27:54;;;;;;;11.23;7.03;;;12.70;99.90;;;;;;5069707;28;20041;-74
2023/10/01 00:30:21;;;;;;;14.13;6.93;;;12.70;99.90;;;;;;5070833;28;20029;-74
2023/10/01 00:32:47;;;;;;;13.17;6.67;;;12.60;99.90;;;;;;5067807;28;20044;-73
2023/10/01 00:35:13;;;;;;;11.43;6.70;;;12.60;99.90;;;;;;5065348;28;20034;-74
2023/10/01 00:37:39;;;;;;;14.33;7.63;;;12.60;99.90;;;;;;5051847;28;20101;-73
2023/10/01 00:40:06;;;;;;;14.67;7.43;;;12.60;99.90;;;;;;5067804;28;20026;-74
2023/10/01 00:42:40;;;;;;;15.63;8.33;;;12.60;99.90;;;;;;5052495;28;20037;-73
2023/10/01 00:45:11;;;;;;;11.50;7.10;;;12.60;99.90;;;;;;5065699;28;20021;-74
2023/10/01 00:47:40;;;;;;;10.67;6.93;;;12.50;99.90;;;;;;5049389;28;20045;-73
2023/10/01 00:50:21;;;;;;;13.73;7.07;;;12.50;99.90;;;;;;5051798;28;20017;-73
2023/10/01 00:52:49;;;;;;;14.37;7.93;;;12.50;99.90;;;;;;5050765;28;20017;-73
2023/10/01 00:55:20;;;;;;;13.97;8.13;;;12.50;99.90;;;;;;5050825;28;20048;-73
2023/10/01 00:57:49;;;;;;;14.63;7.60;;;12.50;99.90;;;;;;5065636;28;20060;-74
2023/10/01 01:00:16;;;;;;;17.90;8.83;;;12.50;99.90;;;;;;5050385;28;20031;-73
2023/10/01 01:02:57;;;;;;;15.03;7.67;;;12.50;99.90;;;;;;5048800;28;20021;-73
2023/10/01 01:05:49;;;;;;;13.13;7.20;;;12.40;99.90;;;;;;5067561;28;20088;-73
2023/10/01 01:08:28;;;;;;;9.38;6.35;;;12.40;99.90;;;;;;5052112;28;20097;-74
2023/10/01 01:10:54;;;;;;;9.10;6.37;;;12.40;99.90;;;;;;5067285;28;20182;-73
2023/10/01 01:13:23;;;;;;;11.37;6.90;;;12.40;99.90;;;;;;5067708;28;20048;-73
2023/10/01 01:15:57;;;;;;;11.27;6.63;;;12.40;99.90;;;;;;5050383;28;20013;-73
2023/10/01 01:18:26;;;;;;;17.80;6.17;;;12.40;99.90;;;;;;5065732;28;20039;-73
2023/10/01 01:21:13;;;;;;;10.43;6.70;;;12.40;99.90;;;;;;5054098;28;20024;-74
2023/10/01 01:23:41;;;;;;;14.13;6.63;;;12.40;99.90;;;;;;5067158;28;20041;-73
2023/10/01 01:26:10;;;;;;;14.37;8.33;;;12.40;99.90;;;;;;5067180;28;20028;-73
2023/10/01 01:28:36;;;;;;;10.53;6.87;;;12.30;99.90;;;;;;5050892;28;20037;-74
2023/10/01 01:31:04;;;;;;;14.43;7.93;;;12.30;99.90;;;;;;5067610;28;20056;-73
2023/10/01 01:33:40;;;;;;;15.50;6.70;;;12.30;99.90;;;;;;5068278;28;20028;-73
2023/10/01 01:36:08;;;;;;;12.73;7.10;;;12.30;99.90;;;;;;5050525;28;20571;-73
2023/10/01 01:38:39;;;;;;;11.83;6.77;;;12.30;99.90;;;;;;5054830;28;20009;-73
2023/10/01 01:41:06;;;;;;;11.07;6.63;;;12.30;99.90;;;;;;5050619;28;20108;-73
2023/10/01 01:43:32;;;;;;;11.97;6.83;;;12.30;99.90;;;;;;5065955;28;20268;-77
2023/10/01 01:46:04;;;;;;;11.03;6.63;;;12.20;99.90;;;;;;5049813;28;20049;-74
2023/10/01 01:48:34;;;;;;;;;;;12.30;99.90;;;;;;5066349;28;20041;-73
2023/10/01 01:51:02;;;;;;;11.03;7.00;;;12.30;99.90;;;;;;5065823;28;19924;-75
2023/10/01 01:53:34;;;;;;;9.70;6.33;;;12.20;99.90;;;;;;5050521;28;20067;-74
2023/10/01 01:56:04;;;;;;;13.20;6.70;;;12.20;99.90;;;;;;5065239;28;20033;-73
2023/10/01 01:58:32;;;;;;;11.37;6.50;;;12.20;99.90;;;;;;5066423;28;20055;-73
2023/10/01 02:01:01;;;;;;;10.90;6.03;;;12.20;99.90;;;;;;5065849;28;20105;-73
2023/10/01 02:03:33;;;;;;;15.37;7.37;;;12.20;99.90;;;;;;5051300;28;20024;-73
2023/10/01 02:06:05;;;;;;;12.45;6.50;;;12.20;99.90;;;;;;5067347;28;20041;-74
2023/10/01 02:11:14;;;;;;;11.73;6.27;;;12.10;99.90;;;;;;5066174;28;20081;-73
2023/10/01 02:13:41;;;;;;;10.00;5.60;;;12.10;99.90;;;;;;5048713;28;20072;-74
2023/10/01 02:16:19;;;;;;;13.90;6.43;;;12.00;99.90;;;;;;5065694;28;20021;-75
2023/10/01 02:18:56;;;;;;;12.00;6.47;;;12.00;99.90;;;;;;5049718;28;20033;-73
2023/10/01 02:21:43;;;;;;;11.87;7.13;;;12.00;99.90;;;;;;5066549;28;20995;-74
2023/10/01 02:24:14;;;;;;;13.47;6.73;;;12.00;99.90;;;;;;5067299;28;20333;-73
2023/10/01 02:26:46;;;;;;;16.77;6.50;;;12.00;99.90;;;;;;5053310;28;20096;-74
2023/10/01 02:29:16;;;;;;;9.07;5.50;;;12.00;99.90;;;;;;5053933;28;20017;-73
2023/10/01 02:31:54;;;;;;;12.30;6.20;;;12.00;99.90;;;;;;5064939;28;20059;-73
2023/10/01 02:34:20;;;;;;;13.37;7.13;;;12.00;99.90;;;;;;5066322;28;20052;-72
2023/10/01 02:36:47;;;;;;;9.77;6.50;;;11.90;99.90;;;;;;5049505;28;20017;-73
2023/10/01 02:39:28;;;;;;;12.97;6.97;;;12.00;99.90;;;;;;5066516;28;20042;-73
2023/10/01 02:44:39;;;;;;;10.70;6.53;;;11.90;99.90;;;;;;5068399;28;20029;-73
2023/10/01 02:47:16;;;;;;;14.83;6.53;;;11.90;99.90;;;;;;5049706;28;20049;-73
2023/10/01 02:49:53;;;;;;;11.80;5.80;;;11.90;99.90;;;;;;5050388;28;20033;-73
2023/10/01 02:52:36;;;;;;;13.30;6.10;;;11.90;99.90;;;;;;5064297;28;20057;-73
2023/10/01 02:55:17;;;;;;;14.83;5.30;;;11.90;99.90;;;;;;5053978;28;20040;-73
2023/10/01 02:57:43;;;;;;;10.33;5.63;;;11.90;99.90;;;;;;5050242;28;20052;-74
2023/10/01 03:02:50;;;;;;;11.15;5.80;;;11.90;99.90;;;;;;5066221;28;20017;-73
2023/10/01 03:05:26;;;;;;;13.97;6.00;;;11.90;99.90;;;;;;5053485;28;20036;-74
2023/10/01 03:07:56;;;;;;;12.63;5.77;;;11.80;99.90;;;;;;5064872;28;20065;-74
2023/10/01 03:10:25;;;;;;;10.90;5.43;;;11.80;99.90;;;;;;5045145;28;20017;-73
2023/10/01 03:13:14;;;;;;;12.97;5.87;;;11.80;99.90;;;;;;5066729;28;20026;-73
2023/10/01 03:16:37;;;;;;;15.23;7.00;;;11.80;99.90;;;;;;5065900;28;20099;-73
2023/10/01 03:18:34;;;;;;;11.57;5.60;;;11.80;99.90;;;;;;5066615;28;20049;-73
2023/10/01 03:21:07;;;;;;;10.05;5.68;;;11.80;99.90;;;;;;5064934;28;20041;-74
2023/10/01 03:23:33;;;;;;;;;;;11.80;99.90;;;;;;5068593;28;20033;-72
2023/10/01 03:28:35;;;;;;;10.80;5.87;;;11.70;99.90;;;;;;5068720;28;20020;-72
2023/10/01 03:31:12;;;;;;;13.20;5.97;;;11.80;99.90;;;;;;5070733;28;20146;-73
2023/10/01 03:33:40;;;;;;;10.77;5.30;;;11.70;99.90;;;;;;5054265;28;20049;-74
2023/10/01 03:36:09;;;;;;;13.03;6.70;;;11.70;99.90;;;;;;5053022;28;20009;-73
2023/10/01 03:38:38;;;;;;;10.90;5.67;;;11.70;99.90;;;;;;5052250;28;20025;-73
2023/10/01 03:41:27;;;;;;;13.03;6.27;;;11.70;99.90;;;;;;5069083;28;20028;-73
2023/10/01 03:43:55;;;;;;;10.17;5.93;;;11.70;99.90;;;;;;5068048;28;20075;-73
2023/10/01 03:48:58;;;;;;;11.37;5.80;;;11.60;99.90;;;;;;5070893;28;20037;-74
2023/10/01 03:51:52;;;;;;;13.83;5.87;;;11.70;99.90;;;;;;5069958;28;20033;-72
2023/10/01 03:54:20;;;;;;;9.73;6.00;;;11.70;99.90;;;;;;5069056;28;20010;-74
2023/10/01 03:56:58;;;;;;;13.93;5.90;;;11.60;99.90;;;;;;5069239;28;20026;-73
2023/10/01 03:59:32;;;;;;;13.20;6.40;;;11.60;99.90;;;;;;5054284;28;20051;-73
2023/10/01 04:01:58;;;;;;;12.20;6.37;;;11.60;99.90;;;;;;5072567;28;20044;-73
2023/10/01 04:04:31;;;;;;;14.70;7.03;;;11.60;99.90;;;;;;5070570;28;20032;-74
2023/10/01 04:07:02;;;;;;;13.80;6.03;;;11.60;99.90;;;;;;5053317;28;20029;-74
2023/10/01 04:09:28;;;;;;;9.23;5.28;;;11.60;99.90;;;;;;5053655;28;20033;-74
2023/10/01 04:12:18;;;;;;;11.37;5.90;;;11.60;99.90;;;;;;5051102;28;20048;-74
2023/10/01 04:14:48;;;;;;;13.03;5.37;;;11.60;99.90;;;;;;5067899;28;20021;-73
2023/10/01 04:17:18;;;;;;;10.37;5.90;;;11.50;99.90;;;;;;5068231;28;20088;-74
2023/10/01 04:19:57;;;;;;;10.90;5.37;;;11.60;99.90;;;;;;5053055;28;20025;-72
2023/10/01 04:22:25;;;;;;;10.70;5.97;;;11.50;99.90;;;;;;5068762;28;20041;-73
2023/10/01 04:25:10;;;;;;;11.10;6.40;;;11.50;99.90;;;;;;5070950;28;20021;-74
2023/10/01 04:27:42;;;;;;;15.73;6.63;;;11.50;99.90;;;;;;5054331;28;20056;-74
2023/10/01 04:30:09;;;;;;;11.13;6.30;;;11.50;99.90;;;;;;5053085;28;20037;-74
2023/10/01 04:32:36;;;;;;;13.73;6.83;;;11.50;99.90;;;;;;5055736;28;20071;-75
2023/10/01 04:35:14;;;;;;;12.60;6.13;;;11.50;99.90;;;;;;5052031;28;20029;-74
2023/10/01 04:37:41;;;;;;;12.77;6.63;;;11.50;99.90;;;;;;5068847;28;20017;-73
2023/10/01 04:42:56;;;;;;;12.90;5.73;;;11.50;99.90;;;;;;5070982;28;20032;-74
2023/10/01 04:45:25;;;;;;;9.93;6.70;;;11.50;99.90;;;;;;5052531;28;20028;-74
2023/10/01 04:47:55;;;;;;;10.57;5.97;;;11.50;99.90;;;;;;5069069;28;20047;-73
2023/10/01 04:50:29;;;;;;;14.63;6.70;;;11.50;99.90;;;;;;5069062;28;20100;-73
2023/10/01 04:52:59;;;;;;;12.10;6.70;;;11.50;99.90;;;;;;5053489;28;20044;-73
2023/10/01 04:55:30;;;;;;;10.00;6.37;;;11.40;99.90;;;;;;5070012;28;20005;-73
2023/10/01 04:57:58;;;;;;;13.00;7.00;;;11.40;99.90;;;;;;5069268;28;20036;-73
2023/10/01 05:00:25;;;;;;;11.13;6.03;;;11.40;99.90;;;;;;5070163;28;20017;-73
2023/10/01 05:02:53;;;;;;;10.37;6.00;;;11.40;99.90;;;;;;5068538;28;20029;-73
2023/10/01 05:05:25;;;;;;;10.37;6.63;;;11.40;99.90;;;;;;5069629;28;20033;-73
2023/10/01 05:07:58;;;;;;;11.02;6.15;;;11.30;99.90;;;;;;5052909;28;20057;-73
2023/10/01 05:10:25;;;;;;;14.77;7.77;;;11.30;99.90;;;;;;5069034;28;20036;-73
2023/10/01 05:12:55;;;;;;;12.37;6.40;;;11.30;99.90;;;;;;5052301;28;20029;-73
2023/10/01 05:15:35;;;;;;;11.07;6.93;;;11.30;99.90;;;;;;5069445;28;20025;-73
2023/10/01 05:18:04;;;;;;;16.13;8.97;;;11.30;99.90;;;;;;5067689;28;20029;-73
2023/10/01 05:20:31;;;;;;;15.83;7.13;;;11.30;99.90;;;;;;5070697;28;20036;-74
2023/10/01 05:23:02;;;;;;;13.63;6.33;;;11.30;99.90;;;;;;5057244;28;20069;-73
2023/10/01 05:25:31;;;;;;;14.67;6.87;;;11.30;99.90;;;;;;5068307;28;20017;-73
2023/10/01 05:28:00;;;;;;;12.20;7.23;;;11.30;99.90;;;;;;5068667;28;20025;-73
2023/10/01 05:30:34;;;;;;;12.53;7.50;;;11.30;99.90;;;;;;5052626;28;20044;-72
2023/10/01 05:33:01;;;;;;;12.23;7.13;;;11.30;99.90;;;;;;5052940;28;20025;-72
2023/10/01 05:35:28;;;;;;;11.80;7.20;;;11.20;99.90;;;;;;5052406;28;20017;-73
2023/10/01 05:37:54;;;;;;;12.20;6.63;;;11.30;99.90;;;;;;5068491;28;20025;-72
2023/10/01 05:40:29;;;;;;;11.80;6.47;;;11.30;99.90;;;;;;5049436;28;20032;-74
2023/10/01 05:43:12;;;;;;;9.43;6.03;;;11.20;99.90;;;;;;5068563;28;20074;-73
2023/10/01 05:45:39;;;;;;;14.85;8.57;;;11.30;99.90;;;;;;5070095;28;20028;-73
2023/10/01 05:48:10;;;;;;;13.20;7.23;;;11.30;99.90;;;;;;5066977;28;20037;-73
2023/10/01 05:50:41;;;;;;;16.37;8.33;;;11.30;99.90;;;;;;5066341;28;20017;-73
2023/10/01 05:53:09;;;;;;;16.17;8.87;;;11.30;99.90;;;;;;5051585;28;20017;-73
2023/10/01 05:55:37;;;;;;;14.67;7.50;;;11.30;99.90;;;;;;5068470;28;20089;-73
2023/10/01 05:58:13;;;;;;;12.23;6.67;;;11.20;99.90;;;;;;5065087;28;20020;-73
2023/10/01 06:00:58;;;;;;;10.87;6.97;;;11.20;99.90;;;;;;5052242;28;20028;-72
2023/10/01 06:03:25;;;;;;;13.23;6.63;;;11.30;99.90;;;;;;5058153;28;20077;-73
2023/10/01 06:05:58;;;;;;;15.57;7.93;;;11.30;99.90;;;;;;5066076;28;20020;-73
2023/10/01 06:08:33;;;;;;;17.48;7.93;;;11.30;99.90;;;;;;5051784;28;20048;-73
2023/10/01 06:11:07;;;;;;;12.00;6.83;;;11.30;99.90;;;;;;5070125;28;20033;-73
2023/10/01 06:13:38;;;;;;;15.10;6.73;;;11.30;99.90;;;;;;5065443;28;20096;-73
2023/10/01 06:16:15;;;;;;;13.00;7.63;;;11.30;99.90;;;;;;5061497;28;20023;-73
2023/10/01 06:18:42;;;;;;;17.90;8.27;;;11.30;99.90;;;;;;5051004;28;20029;-73
2023/10/01 06:21:11;;;;;;;10.47;7.03;;;11.40;99.90;;;;;;5051204;28;20047;-74
2023/10/01 06:23:49;;;;;;;16.10;8.47;;;11.40;99.90;;;;;;5068019;28;20016;-73
2023/10/01 06:26:29;;;;;;;15.27;8.87;;;11.40;99.90;;;;;;5052989;28;20021;-74
2023/10/01 06:28:56;;;;;;;15.47;8.60;;;11.40;99.90;;;;;;5065624;28;20021;-74
2023/10/01 06:31:27;;;;;;;14.10;8.50;;;11.50;99.90;;;;;;5067250;28;20017;-73
2023/10/01 06:33:58;;;;;;;13.37;7.43;;;11.50;99.90;;;;;;5049751;28;20033;-73
2023/10/01 06:36:25;;;;;;;15.02;8.88;;;11.50;99.90;;;;;;5048890;28;20040;-73
2023/10/01 06:38:54;;;;;;;17.80;9.53;;;11.60;99.90;;;;;;5056266;28;20041;-73
2023/10/01 06:41:25;;;;;;;14.37;8.43;;;11.60;99.90;;;;;;5068932;28;20084;-74
2023/10/01 06:43:54;;;;;;;16.90;9.10;;;11.60;99.90;;;;;;5065779;28;20081;-73
2023/10/01 06:46:29;;;;;;;14.07;8.27;;;11.70;99.90;;;;;;5064698;28;20091;-74
2023/10/01 06:48:58;;;;;;;15.80;7.97;;;11.70;99.90;;;;;;5050489;28;20032;-74
2023/10/01 06:51:26;;;;;;;12.83;7.40;;;11.80;99.90;;;;;;5053509;28;20032;-74
2023/10/01 06:53:58;;;;;;;17.67;8.40;;;11.80;99.90;;;;;;5055502;28;20025;-73
2023/10/01 06:56:29;;;;;;;13.13;7.93;;;11.90;99.90;;;;;;5065939;28;20073;-73
2023/10/01 07:01:47;;;;;;;13.97;7.67;;;12.00;99.90;;;;;;5071283;28;20022;-74
2023/10/01 07:04:20;;;;;;;15.90;8.80;;;12.10;99.90;;;;;;5071108;28;20017;-74
2023/10/01 07:06:50;;;;;;;16.63;8.20;;;12.20;99.90;;;;;;5066862;28;20041;-74
2023/10/01 07:09:24;;;;;;;18.13;7.57;;;12.20;99.90;;;;;;5067571;28;20013;-74
2023/10/01 07:11:56;;;;;;;13.90;7.53;;;12.30;99.90;;;;;;5053464;28;20021;-74
2023/10/01 07:17:13;;;;;;;14.77;7.70;;;12.40;99.90;;;;;;5071753;28;20043;-74
2023/10/01 07:19:45;;;;;;;;;;;12.50;99.90;;;;;;5068627;28;20025;-75
2023/10/01 07:22:14;;;;;;;12.93;7.70;;;12.50;99.90;;;;;;5068760;28;19912;-75
2023/10/01 07:24:40;;;;;;;13.97;6.80;;;12.50;99.90;;;;;;5056524;28;20022;-75
2023/10/01 07:27:07;;;;;;;15.77;6.33;;;12.70;99.90;;;;;;5051798;28;20028;-75
2023/10/01 07:29:41;;;;;;;16.63;8.87;;;12.70;99.90;;;;;;5069822;28;20025;-74
2023/10/01 07:32:08;;;;;;;14.47;8.20;;;12.80;99.90;;;;;;5052716;28;20028;-75
2023/10/01 07:34:35;;;;;;;12.03;7.20;;;12.80;99.90;;;;;;5069650;28;20020;-74
2023/10/01 07:37:04;;;;;;;14.67;8.03;;;12.80;99.90;;;;;;5049788;28;20037;-75
2023/10/01 07:39:37;;;;;;;10.90;6.87;;;12.90;99.90;;;;;;5052154;28;20062;-75
2023/10/01 07:42:04;;;;;;;15.10;7.67;;;13.00;99.90;;;;;;5068527;28;21198;-74
2023/10/01 07:44:36;;;;;;;13.77;7.80;;;13.00;99.90;;;;;;5053010;28;20025;-75
2023/10/01 07:47:06;;;;;;;14.70;7.00;;;13.10;99.90;;;;;;5068824;28;20033;-74
2023/10/01 07:49:48;;;;;;;12.82;8.10;;;13.10;99.90;;;;;;5050616;28;20268;-77
2023/10/01 07:52:17;;;;;;;16.15;7.68;;;13.20;99.90;;;;;;5058399;28;20017;-74
2023/10/01 07:54:49;;;;;;;10.00;6.00;;;13.20;99.90;;;;;;5064735;28;20092;-74
2023/10/01 07:57:16;;;;;;;12.65;7.03;;;13.30;99.90;;;;;;5069901;28;20025;-74
2023/10/01 07:59:43;;;;;;;15.30;6.90;;;13.30;99.90;;;;;;5068993;28;20032;-73
2023/10/01 08:04:57;;;;;;;15.70;7.10;;;13.40;99.90;;;;;;5067297;28;20017;-74
2023/10/01 08:07:30;;;;;;;15.63;7.77;;;13.40;99.90;;;;;;5068096;28;20096;-73
2023/10/01 08:09:59;;;;;;;10.73;6.70;;;13.50;99.90;;;;;;5053145;28;20022;-74
2023/10/01 08:12:29;;;;;;;15.07;6.85;;;13.60;99.90;;;;;;5067953;28;20017;-74
2023/10/01 08:15:29;;;;;;;11.95;6.40;;;13.60;99.90;;;;;;5066407;28;20017;-74
2023/10/01 08:17:55;;;;;;;15.38;7.38;;;13.60;99.90;;;;;;5048911;28;20072;-73
2023/10/01 08:20:21;;;;;;;11.57;6.88;;;13.60;99.90;;;;;;5050567;28;20025;-74
2023/10/01 08:25:42;;;;;;;13.48;6.50;;;13.70;99.90;;;;;;5068388;28;20035;-73
2023/10/01 08:28:26;;;;;;;17.00;7.07;;;13.80;99.90;;;;;;5064645;28;20114;-73
2023/10/01 08:31:02;;;;;;;11.43;6.30;;;13.90;99.90;;;;;;5063488;28;20025;-74
2023/10/01 08:33:32;;;;;;;17.48;7.10;;;14.00;99.90;;;;;;5053887;28;20018;-74
2023/10/01 08:36:14;;;;;;;14.20;6.60;;;14.10;99.90;;;;;;5065211;28;20082;-74
2023/10/01 08:38:47;;;;;;;14.98;6.95;;;14.10;99.90;;;;;;5050968;28;20036;-74
2023/10/01 08:41:29;;;;;;;;;;;14.20;99.90;;;;;;5067367;28;20021;-73
2023/10/01 08:44:09;;;;;;;14.98;5.40;;;14.20;99.90;;;;;;5112296;22;19909;-74
2023/10/01 08:46:39;;;;;;;12.10;6.65;;;14.10;99.90;;;;;;5038845;28;20093;-74
2023/10/01 08:49:23;;;;;;;14.45;6.82;;;14.30;99.90;;;;;;5056562;28;20005;-74
2023/10/01 08:52:18;;;;;;;13.57;7.28;;;14.40;99.90;;;;;;5055190;28;20028;-74
2023/10/01 08:54:48;;;;;;;13.05;6.32;;;14.30;99.90;;;;;;5057643;28;20013;-74
2023/10/01 09:00:00;;;;;;;10.63;5.88;;;14.50;99.90;;;;;;5057023;28;20032;-74
2023/10/01 09:02:26;;;;;;;13.52;6.10;;;14.50;99.90;;;;;;5039705;28;20022;-74
2023/10/01 09:04:53;;;;;;;14.60;6.65;;;14.60;99.90;;;;;;5039487;28;20588;-74
2023/10/01 09:07:19;;;;;;;15.90;6.05;;;14.60;99.90;;;;;;5056776;28;20072;-74
2023/10/01 09:10:05;;;;;;;18.20;7.72;;;14.70;99.90;;;;;;5039006;28;20033;-74
2023/10/01 09:12:34;;;;;;;15.40;7.13;;;14.70;99.90;;;;;;5055342;28;20033;-74
2023/10/01 09:15:21;;;;;;;17.63;7.47;;;14.70;99.90;;;;;;5036820;28;20038;-73
2023/10/01 09:17:58;;;;;;;15.55;7.85;;;14.60;99.90;;;;;;5034751;28;20039;-74
2023/10/01 09:20:42;;;;;;;11.57;5.30;;;14.70;99.90;;;;;;5038555;28;20031;-74
2023/10/01 09:23:08;;;;;;;15.93;6.05;;;14.80;99.90;;;;;;5054018;28;20022;-73
2023/10/01 09:25:39;;;;;;;12.10;6.25;;;15.00;99.90;;;;;;5037848;28;20021;-74
2023/10/01 09:28:29;;;;;;;12.35;6.00;;;15.20;99.90;;;;;;5056666;28;20140;-74
2023/10/01 09:33:48;;;;;;;14.50;6.28;;;15.30;99.90;;;;;;5056976;28;20132;-74
2023/10/01 09:36:35;;;;;;;15.88;7.25;;;15.50;99.90;;;;;;5057192;28;20064;-73
2023/10/01 09:39:03;;;;;;;13.30;6.47;;;15.50;99.90;;;;;;5055314;28;20032;-74
2023/10/01 09:41:40;;;;;;;11.70;6.00;;;15.40;99.90;;;;;;5038929;28;20057;-74
2023/10/01 09:44:07;;;;;;;11.23;5.85;;;15.50;99.90;;;;;;5056648;28;20088;-75
2023/10/01 09:46:35;;;;;;;16.52;6.65;;;15.60;99.90;;;;;;5057967;28;20056;-74
2023/10/01 09:49:02;;;;;;;13.00;5.75;;;15.60;99.90;;;;;;5054615;28;20037;-74
2023/10/01 09:51:34;;;;;;;12.32;6.45;;;15.60;99.90;;;;;;5056625;28;20013;-74
2023/10/01 09:54:02;;;;;;;;;;;15.60;99.90;;;;;;5036068;28;20026;-74
2023/10/01 09:56:30;;;;;;;19.38;8.77;;;15.70;99.90;;;;;;5051693;28;19931;-74
2023/10/01 09:58:58;;;;;;;15.40;6.57;;;15.80;99.90;;;;;;5055677;28;20033;-74
2023/10/01 10:01:27;;;;;;;16.20;7.55;;;15.90;99.90;;;;;;5054722;28;20192;-74
2023/10/01 10:03:56;;;;;;;20.88;8.65;;;16.00;99.90;;;;;;5035170;28;20036;-75
2023/10/01 10:06:25;;;;;;;13.35;6.15;;;16.20;99.90;;;;;;5058102;28;20076;-74
2023/10/01 10:09:03;;;;;;;19.83;8.07;;;16.30;99.90;;;;;;5035520;28;20022;-75
2023/10/01 10:11:45;;;;;;;15.75;6.60;;;16.40;99.90;;;;;;5054983;28;20040;-75
2023/10/01 10:14:25;;;;;;;16.15;7.65;;;16.50;99.90;;;;;;5039693;28;20033;-74
2023/10/01 10:17:07;;;;;;;14.48;7.07;;;16.50;99.90;;;;;;5038458;28;20037;-73
2023/10/01 10:19:47;;;;;;;14.00;7.18;;;16.50;99.90;;;;;;5055535;28;20025;-76
2023/10/01 10:22:16;;;;;;;18.55;7.97;;;16.50;99.90;;;;;;5036565;28;20029;-77
2023/10/01 10:24:47;;;;;;;16.95;7.22;;;16.60;99.90;;;;;;5053799;28;20033;-74
2023/10/01 10:27:17;;;;;;;18.33;7.60;;;16.70;99.90;;;;;;5048861;28;20077;-77
2023/10/01 10:30:01;;;;;;;14.88;6.20;;;16.70;99.90;;;;;;5050378;28;20172;-77
2023/10/01 10:32:28;;;;;;;12.98;5.93;;;16.80;99.90;;;;;;5042952;28;20194;-80
2023/10/01 10:35:03;;;;;;;16.40;7.05;;;16.90;99.90;;;;;;5018709;28;20037;-81
2023/10/01 10:37:35;;;;;;;16.15;6.25;;;17.10;99.90;;;;;;5031070;28;20033;-83
2023/10/01 10:40:12;;;;;;;15.93;6.75;;;17.30;99.90;;;;;;5031543;28;20041;-84
2023/10/01 10:42:44;;;;;;;17.30;6.97;;;17.30;99.90;;;;;;5027467;28;20116;-87
2023/10/01 10:45:21;;;;;;;19.35;7.90;;;17.40;99.90;;;;;;5013964;28;20068;-84
2023/10/01 10:47:58;;;;;;;16.30;7.18;;;17.60;99.90;;;;;;5016719;28;20077;-84
2023/10/01 10:50:50;;;;;;;17.33;7.45;;;17.70;99.90;;;;;;5012807;28;20030;-83
2023/10/01 10:53:20;;;;;;;16.27;6.93;;;17.70;99.90;;;;;;5011281;28;20025;-86
2023/10/01 10:55:54;;;;;;;13.63;5.80;;;17.80;99.90;;;;;;5012636;28;20039;-84
2023/10/01 10:58:24;;;;;;;14.65;6.95;;;17.90;99.90;;;;;;5031283;28;20171;-86
2023/10/01 11:00:50;;;;;;;14.88;6.50;;;18.00;99.90;;;;;;5030701;28;20025;-86
2023/10/01 11:03:16;;;;;;;18.02;7.75;;;18.10;99.90;;;;;;5031612;28;20051;-83
2023/10/01 11:05:52;;;;;;;14.32;6.57;;;18.20;99.90;;;;;;5014387;28;20411;-85
2023/10/01 11:08:27;;;;;;;15.10;6.32;;;18.30;99.90;;;;;;5013755;28;20044;-82
2023/10/01 11:11:10;;;;;;;14.70;6.47;;;18.30;99.90;;;;;;5030479;28;20100;-82
2023/10/01 11:13:42;;;;;;;16.02;7.35;;;18.40;99.90;;;;;;5028794;28;20034;-85
2023/10/01 11:16:16;;;;;;;16.08;7.40;;;18.50;99.90;;;;;;5030163;28;20029;-83
2023/10/01 11:18:47;;;;;;;15.45;6.90;;;18.60;99.90;;;;;;5013268;28;20030;-86
2023/10/01 11:21:20;;;;;;;14.02;6.88;;;18.70;99.90;;;;;;5009967;28;20116;-83
2023/10/01 11:23:53;;;;;;;15.93;7.45;;;18.80;99.90;;;;;;5013095;28;20052;-84
2023/10/01 11:26:29;;;;;;;18.02;6.78;;;18.90;99.90;;;;;;5032059;28;20037;-85
2023/10/01 11:29:10;;;;;;;16.55;7.03;;;18.90;99.90;;;;;;5026032;28;20056;-82
2023/10/01 11:31:38;;;;;;;15.27;7.47;;;18.90;99.90;;;;;;5027925;28;20037;-86
2023/10/01 11:34:21;;;;;;;17.73;7.50;;;19.00;99.90;;;;;;5012925;28;20029;-86
2023/10/01 11:36:56;;;;;;;12.15;6.50;;;19.10;99.90;;;;;;5013591;28;20029;-83
2023/10/01 11:39:38;;;;;;;19.38;7.28;;;19.20;99.90;;;;;;5030624;28;20029;-86
2023/10/01 11:42:19;;;;;;;13.50;6.40;;;19.20;99.90;;;;;;5029720;28;20618;-87
2023/10/01 11:44:52;;;;;;;16.90;6.82;;;19.30;99.90;;;;;;5012485;28;20092;-83
2023/10/01 11:47:34;;;;;;;16.58;7.32;;;19.40;99.90;;;;;;5035797;28;20514;-84
2023/10/01 11:50:07;;;;;;;13.40;6.88;;;19.50;99.90;;;;;;5033858;28;20025;-83
2023/10/01 11:52:36;;;;;;;19.67;6.63;;;19.60;99.90;;;;;;5034054;28;20040;-83
2023/10/01 11:55:18;;;;;;;17.95;7.22;;;19.60;99.90;;;;;;5017120;28;20037;-84
2023/10/01 11:57:51;;;;;;;13.48;6.55;;;19.70;99.90;;;;;;5016613;28;20033;-87
2023/10/01 12:00:52;;;;;;;15.55;6.97;;;19.80;99.90;;;;;;5016439;28;20037;-87
2023/10/01 12:03:10;;;;;;;16.38;7.43;;;19.90;99.90;;;;;;5034188;28;20032;-83
2023/10/01 12:05:46;;;;;;;16.33;7.57;;;20.00;99.90;;;;;;5018843;28;20029;-81
2023/10/01 12:08:18;;;;;;;13.98;7.05;;;20.00;99.90;;;;;;5012041;28;20034;-83
2023/10/01 12:10:44;;;;;;;16.30;7.35;;;20.00;99.90;;;;;;5032276;28;20040;-85
2023/10/01 12:13:13;;;;;;;16.95;7.25;;;20.10;99.90;;;;;;5014944;28;20033;-86
2023/10/01 12:15:51;;;;;;;15.95;7.00;;;20.10;99.90;;;;;;5018314;28;20087;-85
2023/10/01 12:18:19;;;;;;;17.45;7.50;;;20.20;99.90;;;;;;5032042;28;20036;-85
2023/10/01 12:20:50;;;;;;;16.08;7.10;;;20.30;99.90;;;;;;5011681;28;20034;-86
2023/10/01 12:23:18;;;;;;;16.67;7.80;;;20.30;99.90;;;;;;5034093;28;20053;-82
2023/10/01 12:28:24;;;;;;;15.85;7.55;;;20.40;99.90;;;;;;5033071;28;20021;-84
2023/10/01 12:31:01;;;;;;;15.65;7.13;;;20.50;99.90;;;;;;5032226;28;20032;-81
2023/10/01 12:33:43;;;;;;;16.75;7.90;;;20.60;99.90;;;;;;5032877;28;20045;-87
2023/10/01 12:47:06;;;;;;;16.90;7.68;;;21.00;99.90;;;;;;5033225;28;20033;-85
2023/10/01 12:49:33;;;;;;;15.10;7.28;;;21.10;99.90;;;;;;5015755;28;20071;-83
2023/10/01 12:52:08;;;;;;;15.05;7.82;;;21.20;99.90;;;;;;5031967;28;20087;-83
2023/10/01 12:54:37;;;;;;;14.70;7.40;;;21.30;99.90;;;;;;5033106;28;20037;-86
2023/10/01 12:57:05;;;;;;;16.20;7.95;;;21.30;99.90;;;;;;5031219;28;20051;-83
2023/10/01 12:59:39;;;;;;;18.75;8.65;;;21.40;99.90;;;;;;5030720;28;20124;-86
2023/10/01 13:02:21;;;;;;;17.33;7.75;;;21.50;99.90;;;;;;5032724;28;20037;-85
2023/10/01 13:07:38;;;;;;;16.20;8.25;;;21.70;99.90;;;;;;5033773;28;20103;-85
2023/10/01 13:10:07;;;;;;;18.67;8.43;;;22.20;99.90;;;;;;5015283;28;20473;-85
2023/10/01 13:12:49;;;;;;;16.67;8.60;;;23.60;99.90;;;;;;5031130;28;20017;-81
2023/10/01 13:15:15;;;;;;;18.55;8.70;;;25.80;99.90;;;;;;5031576;28;20116;-82
2023/10/01 13:18:00;;;;;;;15.18;8.02;;;27.90;99.90;;;;;;5031733;28;20182;-85
2023/10/01 13:20:29;;;;;;;13.88;7.45;;;29.70;96.60;;;;;;5030882;28;20175;-84
2023/10/01 13:23:06;;;;;;;14.90;8.23;;;30.80;92.40;;;;;;5014681;28;20112;-83
2023/10/01 13:25:46;;;;;;;14.50;8.05;;;31.40;90.20;;;;;;5030910;28;20159;-85
2023/10/01 13:28:19;;;;;;;14.75;8.40;;;31.50;86.10;;;;;;5010444;28;21642;-85
2023/10/01 13:33:43;;;;;;;16.98;8.63;;;30.90;81.90;;;;;;5029507;28;20030;-84
2023/10/01 13:36:13;;;;;;;15.52;8.77;;;30.50;80.50;;;;;;5013647;28;20033;-85
2023/10/01 13:38:56;;;;;;;18.45;9.70;;;29.80;78.80;;;;;;5029782;28;20096;-84
2023/10/01 14:08:44;;;;;;;20.27;9.65;;;26.10;89.10;;;;;;5030607;28;20044;-84
2023/10/01 14:11:11;;;;;;;21.02;9.40;;;25.90;89.30;;;;;;5032132;28;20037;-89
2023/10/01 14:13:37;;;;;;;21.85;10.13;;;25.60;89.60;;;;;;5031870;28;20115;-87
2023/10/01 14:19:13;;;;;;;16.70;8.25;;;25.50;91.70;;;;;;5019830;28;20034;-83
2023/10/01 14:21:40;;;;;;;13.27;7.85;;;25.30;92.50;;;;;;5031624;28;20045;-87
2023/10/01 14:24:21;;;;;;;15.13;8.07;;;25.20;92.70;;;;;;5014608;28;20021;-84
2023/10/01 14:26:50;;;;;;;24.27;13.68;;;25.10;92.00;;;;;;5030862;28;20060;-84